sensor_id;sensor_type;location;lat;lon;timestamp;temperature;humidity
67379;DHT22;54262;44.642;-0.974;2023-06-14T00:01:36;20.30;99.90
67379;DHT22;54262;44.642;-0.974;2023-06-14T00:04:03;20.40;99.90
67379;DHT22;54262;44.642;-0.974;2023-06-14T00:06:31;20.40;99.90
67379;DHT22;54262;44.642;-0.974;2023-06-14T00:08:59;20.40;99.90
67379;DHT22;54262;44.642;-0.974;2023-06-14T00:11:27;20.50;99.90
67379;DHT22;54262;44.642;-0.974;2023-06-14T00:13:54;20.40;99.90
67379;DHT22;54262;44.642;-0.974;2023-06-14T00:16:20;20.20;99.90
67379;DHT22;54262;44.642;-0.974;2023-06-14T00:18:46;20.20;99.90
67379;DHT22;54262;44.642;-0.974;2023-06-14T00:21:15;20.00;99.90
67379;DHT22;54262;44.642;-0.974;2023-06-14T00:23:40;20.20;99.90
67379;DHT22;54262;44.642;-0.974;2023-06-14T00:26:06;20.40;99.90
67379;DHT22;54262;44.642;-0.974;2023-06-14T00:28:31;20.30;99.90
67379;DHT22;54262;44.642;-0.974;2023-06-14T00:30:57;20.40;99.90
67379;DHT22;54262;44.642;-0.974;2023-06-14T00:33:23;20.50;99.90
67379;DHT22;54262;44.642;-0.974;2023-06-14T00:35:49;20.50;99.90
67379;DHT22;54262;44.642;-0.974;2023-06-14T00:38:15;20.50;99.90
67379;DHT22;54262;44.642;-0.974;2023-06-14T00:40:41;20.30;99.90
67379;DHT22;54262;44.642;-0.974;2023-06-14T00:43:07;20.40;99.90
67379;DHT22;54262;44.642;-0.974;2023-06-14T00:45:32;20.20;99.90
67379;DHT22;54262;44.642;-0.974;2023-06-14T00:48:02;20.40;99.90
67379;DHT22;54262;44.642;-0.974;2023-06-14T00:50:28;20.50;99.90
67379;DHT22;54262;44.642;-0.974;2023-06-14T00:52:55;20.40;99.90
67379;DHT22;54262;44.642;-0.974;2023-06-14T00:55:21;20.30;99.90
67379;DHT22;54262;44.642;-0.974;2023-06-14T00:57:48;20.30;99.90
67379;DHT22;54262;44.642;-0.974;2023-06-14T01:00:14;20.20;99.90
67379;DHT22;54262;44.642;-0.974;2023-06-14T01:02:40;19.90;99.90
67379;DHT22;54262;44.642;-0.974;2023-06-14T01:05:07;20.20;99.90
67379;DHT22;54262;44.642;-0.974;2023-06-14T01:13:43;20.30;99.90
67379;DHT22;54262;44.642;-0.974;2023-06-14T01:16:12;20.30;99.90
67379;DHT22;54262;44.642;-0.974;2023-06-14T01:18:38;20.30;99.90
67379;DHT22;54262;44.642;-0.974;2023-06-14T01:21:03;20.30;99.90
67379;DHT22;54262;44.642;-0.974;2023-06-14T01:23:33;20.30;99.90
67379;DHT22;54262;44.642;-0.974;2023-06-14T01:25:59;20.30;99.90
67379;DHT22;54262;44.642;-0.974;2023-06-14T01:28:26;20.40;99.90
67379;DHT22;54262;44.642;-0.974;2023-06-14T01:31:00;20.40;99.90
67379;DHT22;54262;44.642;-0.974;2023-06-14T01:33:29;20.30;99.90
67379;DHT22;54262;44.642;-0.974;2023-06-14T01:35:56;20.20;99.90
67379;DHT22;54262;44.642;-0.974;2023-06-14T01:38:25;20.30;99.90
67379;DHT22;54262;44.642;-0.974;2023-06-14T01:40:53;20.20;99.90
67379;DHT22;54262;44.642;-0.974;2023-06-14T01:43:20;19.90;99.90
67379;DHT22;54262;44.642;-0.974;2023-06-14T01:45:47;20.20;99.90
67379;DHT22;54262;44.642;-0.974;2023-06-14T01:48:14;20.20;99.90
67379;DHT22;54262;44.642;-0.974;2023-06-14T01:50:40;20.30;99.90
67379;DHT22;54262;44.642;-0.974;2023-06-14T01:53:10;20.30;99.90
67379;DHT22;54262;44.642;-0.974;2023-06-14T01:55:36;20.40;99.90
67379;DHT22;54262;44.642;-0.974;2023-06-14T01:58:03;20.10;99.90
67379;DHT22;54262;44.642;-0.974;2023-06-14T02:00:30;19.90;99.90
67379;DHT22;54262;44.642;-0.974;2023-06-14T02:02:55;20.00;99.90
67379;DHT22;54262;44.642;-0.974;2023-06-14T02:05:22;19.90;99.90
67379;DHT22;54262;44.642;-0.974;2023-06-14T02:07:47;20.00;99.90
67379;DHT22;54262;44.642;-0.974;2023-06-14T02:10:13;19.90;99.90
67379;DHT22;54262;44.642;-0.974;2023-06-14T02:12:40;20.00;99.90
67379;DHT22;54262;44.642;-0.974;2023-06-14T02:15:08;20.20;99.90
67379;DHT22;54262;44.642;-0.974;2023-06-14T02:17:36;20.20;99.90
67379;DHT22;54262;44.642;-0.974;2023-06-14T02:20:02;20.30;99.90
67379;DHT22;54262;44.642;-0.974;2023-06-14T02:22:28;20.30;99.90
67379;DHT22;54262;44.642;-0.974;2023-06-14T02:24:54;20.20;99.90
67379;DHT22;54262;44.642;-0.974;2023-06-14T02:27:20;20.20;99.90
67379;DHT22;54262;44.642;-0.974;2023-06-14T02:29:45;20.20;99.90
67379;DHT22;54262;44.642;-0.974;2023-06-14T02:32:11;20.10;99.90
67379;DHT22;54262;44.642;-0.974;2023-06-14T02:34:37;20.20;99.90
67379;DHT22;54262;44.642;-0.974;2023-06-14T02:37:06;19.90;99.90
67379;DHT22;54262;44.642;-0.974;2023-06-14T02:39:32;20.00;99.90
67379;DHT22;54262;44.642;-0.974;2023-06-14T02:41:57;20.00;99.90
67379;DHT22;54262;44.642;-0.974;2023-06-14T02:44:26;20.00;99.90
67379;DHT22;54262;44.642;-0.974;2023-06-14T02:46:53;20.00;99.90
67379;DHT22;54262;44.642;-0.974;2023-06-14T02:49:19;19.90;99.90
67379;DHT22;54262;44.642;-0.974;2023-06-14T02:51:45;20.10;99.90
67379;DHT22;54262;44.642;-0.974;2023-06-14T02:54:11;20.00;99.90
67379;DHT22;54262;44.642;-0.974;2023-06-14T02:56:36;20.00;99.90
67379;DHT22;54262;44.642;-0.974;2023-06-14T02:59:02;20.00;99.90
67379;DHT22;54262;44.642;-0.974;2023-06-14T03:01:28;19.90;99.90
67379;DHT22;54262;44.642;-0.974;2023-06-14T03:04:02;20.10;99.90
67379;DHT22;54262;44.642;-0.974;2023-06-14T03:06:29;19.90;99.90
67379;DHT22;54262;44.642;-0.974;2023-06-14T03:08:58;19.80;99.90
67379;DHT22;54262;44.642;-0.974;2023-06-14T03:11:25;19.80;99.90
67379;DHT22;54262;44.642;-0.974;2023-06-14T03:13:51;19.80;99.90
67379;DHT22;54262;44.642;-0.974;2023-06-14T03:16:19;19.80;99.90
67379;DHT22;54262;44.642;-0.974;2023-06-14T03:18:51;19.90;99.90
67379;DHT22;54262;44.642;-0.974;2023-06-14T03:21:20;19.90;99.90
67379;DHT22;54262;44.642;-0.974;2023-06-14T03:23:46;20.00;99.90
67379;DHT22;54262;44.642;-0.974;2023-06-14T03:26:12;19.90;99.90
67379;DHT22;54262;44.642;-0.974;2023-06-14T03:28:39;19.80;99.90
67379;DHT22;54262;44.642;-0.974;2023-06-14T03:31:05;19.80;99.90
67379;DHT22;54262;44.642;-0.974;2023-06-14T03:33:31;19.50;99.90
67379;DHT22;54262;44.642;-0.974;2023-06-14T03:35:57;19.50;99.90
67379;DHT22;54262;44.642;-0.974;2023-06-14T03:38:23;19.40;99.90
67379;DHT22;54262;44.642;-0.974;2023-06-14T03:40:48;19.30;99.90
67379;DHT22;54262;44.642;-0.974;2023-06-14T03:43:14;19.30;99.90
67379;DHT22;54262;44.642;-0.974;2023-06-14T03:45:40;19.20;99.90
67379;DHT22;54262;44.642;-0.974;2023-06-14T03:48:05;19.20;99.90
67379;DHT22;54262;44.642;-0.974;2023-06-14T03:50:32;19.20;99.90
67379;DHT22;54262;44.642;-0.974;2023-06-14T03:52:58;19.20;99.90
67379;DHT22;54262;44.642;-0.974;2023-06-14T03:55:24;19.20;99.90
67379;DHT22;54262;44.642;-0.974;2023-06-14T03:57:51;19.40;99.90
67379;DHT22;54262;44.642;-0.974;2023-06-14T04:00:17;19.60;99.90
67379;DHT22;54262;44.642;-0.974;2023-06-14T04:02:43;19.70;99.90
67379;DHT22;54262;44.642;-0.974;2023-06-14T04:05:10;19.60;99.90
67379;DHT22;54262;44.642;-0.974;2023-06-14T04:07:36;19.90;99.90
67379;DHT22;54262;44.642;-0.974;2023-06-14T04:10:10;19.90;99.90
67379;DHT22;54262;44.642;-0.974;2023-06-14T04:12:36;19.80;99.90
67379;DHT22;54262;44.642;-0.974;2023-06-14T04:15:02;19.90;99.90
67379;DHT22;54262;44.642;-0.974;2023-06-14T04:17:30;19.80;99.90
67379;DHT22;54262;44.642;-0.974;2023-06-14T04:19:59;19.70;99.90
67379;DHT22;54262;44.642;-0.974;2023-06-14T04:22:28;19.80;99.90
67379;DHT22;54262;44.642;-0.974;2023-06-14T04:24:54;19.60;99.90
67379;DHT22;54262;44.642;-0.974;2023-06-14T04:27:23;19.70;99.90
67379;DHT22;54262;44.642;-0.974;2023-06-14T04:29:52;19.60;99.90
67379;DHT22;54262;44.642;-0.974;2023-06-14T04:32:28;19.80;99.90
67379;DHT22;54262;44.642;-0.974;2023-06-14T04:34:55;19.70;99.90
67379;DHT22;54262;44.642;-0.974;2023-06-14T04:37:24;19.70;99.90
67379;DHT22;54262;44.642;-0.974;2023-06-14T04:39:50;19.80;99.90
67379;DHT22;54262;44.642;-0.974;2023-06-14T04:42:17;19.90;99.90
67379;DHT22;54262;44.642;-0.974;2023-06-14T04:44:46;19.90;99.90
67379;DHT22;54262;44.642;-0.974;2023-06-14T04:47:13;19.90;99.90
67379;DHT22;54262;44.642;-0.974;2023-06-14T04:49:39;20.00;99.90
67379;DHT22;54262;44.642;-0.974;2023-06-14T04:52:06;20.00;99.90
67379;DHT22;54262;44.642;-0.974;2023-06-14T04:54:33;20.00;99.90
67379;DHT22;54262;44.642;-0.974;2023-06-14T04:56:59;20.00;99.90
67379;DHT22;54262;44.642;-0.974;2023-06-14T04:59:25;19.90;99.90
67379;DHT22;54262;44.642;-0.974;2023-06-14T05:01:51;20.00;99.90
67379;DHT22;54262;44.642;-0.974;2023-06-14T05:04:19;19.90;99.90
67379;DHT22;54262;44.642;-0.974;2023-06-14T05:06:45;20.00;99.90
67379;DHT22;54262;44.642;-0.974;2023-06-14T05:09:11;20.00;99.90
67379;DHT22;54262;44.642;-0.974;2023-06-14T05:11:37;20.00;99.90
67379;DHT22;54262;44.642;-0.974;2023-06-14T05:14:03;20.10;99.90
67379;DHT22;54262;44.642;-0.974;2023-06-14T05:16:28;20.20;99.90
67379;DHT22;54262;44.642;-0.974;2023-06-14T05:18:57;20.20;99.90
67379;DHT22;54262;44.642;-0.974;2023-06-14T05:21:25;20.30;99.90
67379;DHT22;54262;44.642;-0.974;2023-06-14T05:23:51;20.30;99.90
67379;DHT22;54262;44.642;-0.974;2023-06-14T05:26:16;20.30;99.90
67379;DHT22;54262;44.642;-0.974;2023-06-14T05:28:42;20.30;99.90
67379;DHT22;54262;44.642;-0.974;2023-06-14T05:31:08;20.40;99.90
67379;DHT22;54262;44.642;-0.974;2023-06-14T05:33:34;20.40;99.90
67379;DHT22;54262;44.642;-0.974;2023-06-14T05:35:59;20.40;99.90
67379;DHT22;54262;44.642;-0.974;2023-06-14T05:38:25;20.50;99.90
67379;DHT22;54262;44.642;-0.974;2023-06-14T05:40:51;20.50;99.90
67379;DHT22;54262;44.642;-0.974;2023-06-14T05:43:17;20.50;99.90
67379;DHT22;54262;44.642;-0.974;2023-06-14T05:45:42;20.50;99.90
67379;DHT22;54262;44.642;-0.974;2023-06-14T05:48:08;20.60;99.90
67379;DHT22;54262;44.642;-0.974;2023-06-14T05:50:34;20.50;99.90
67379;DHT22;54262;44.642;-0.974;2023-06-14T05:52:59;20.70;99.90
67379;DHT22;54262;44.642;-0.974;2023-06-14T05:55:25;20.70;99.90
67379;DHT22;54262;44.642;-0.974;2023-06-14T05:57:51;20.60;99.90
67379;DHT22;54262;44.642;-0.974;2023-06-14T06:00:17;20.60;99.90
67379;DHT22;54262;44.642;-0.974;2023-06-14T06:02:44;20.50;99.90
67379;DHT22;54262;44.642;-0.974;2023-06-14T06:05:10;20.60;99.90
67379;DHT22;54262;44.642;-0.974;2023-06-14T06:07:37;21.10;99.90
67379;DHT22;54262;44.642;-0.974;2023-06-14T06:10:03;21.50;99.90
67379;DHT22;54262;44.642;-0.974;2023-06-14T06:12:30;21.30;99.90
67379;DHT22;54262;44.642;-0.974;2023-06-14T06:14:56;21.40;99.90
67379;DHT22;54262;44.642;-0.974;2023-06-14T06:17:22;21.70;99.90
67379;DHT22;54262;44.642;-0.974;2023-06-14T06:19:50;21.90;99.90
67379;DHT22;54262;44.642;-0.974;2023-06-14T06:22:18;22.80;99.90
67379;DHT22;54262;44.642;-0.974;2023-06-14T06:24:43;22.40;99.90
67379;DHT22;54262;44.642;-0.974;2023-06-14T06:27:09;22.40;99.90
67379;DHT22;54262;44.642;-0.974;2023-06-14T06:29:35;22.90;99.90
67379;DHT22;54262;44.642;-0.974;2023-06-14T06:32:02;23.70;99.90
67379;DHT22;54262;44.642;-0.974;2023-06-14T06:34:28;23.80;99.90
67379;DHT22;54262;44.642;-0.974;2023-06-14T06:36:53;24.40;99.90
67379;DHT22;54262;44.642;-0.974;2023-06-14T06:39:19;24.70;99.90
67379;DHT22;54262;44.642;-0.974;2023-06-14T06:41:45;24.40;99.90
67379;DHT22;54262;44.642;-0.974;2023-06-14T06:44:10;24.50;99.90
67379;DHT22;54262;44.642;-0.974;2023-06-14T06:46:36;24.00;99.90
67379;DHT22;54262;44.642;-0.974;2023-06-14T06:49:09;23.20;99.90
67379;DHT22;54262;44.642;-0.974;2023-06-14T06:51:37;22.80;99.90
67379;DHT22;54262;44.642;-0.974;2023-06-14T06:54:03;23.70;99.90
67379;DHT22;54262;44.642;-0.974;2023-06-14T06:56:28;23.00;99.90
67379;DHT22;54262;44.642;-0.974;2023-06-14T06:58:54;23.00;99.90
67379;DHT22;54262;44.642;-0.974;2023-06-14T07:01:20;23.70;99.90
67379;DHT22;54262;44.642;-0.974;2023-06-14T07:03:46;23.70;99.90
67379;DHT22;54262;44.642;-0.974;2023-06-14T07:06:12;22.50;99.90
67379;DHT22;54262;44.642;-0.974;2023-06-14T07:08:38;22.50;99.90
67379;DHT22;54262;44.642;-0.974;2023-06-14T07:11:04;22.50;99.90
67379;DHT22;54262;44.642;-0.974;2023-06-14T07:13:30;22.60;99.90
67379;DHT22;54262;44.642;-0.974;2023-06-14T07:15:58;22.40;99.90
67379;DHT22;54262;44.642;-0.974;2023-06-14T07:18:26;22.40;99.90
67379;DHT22;54262;44.642;-0.974;2023-06-14T07:20:54;22.10;99.90
67379;DHT22;54262;44.642;-0.974;2023-06-14T07:23:22;22.90;99.90
67379;DHT22;54262;44.642;-0.974;2023-06-14T07:25:48;23.10;99.90
67379;DHT22;54262;44.642;-0.974;2023-06-14T07:28:14;23.20;99.90
67379;DHT22;54262;44.642;-0.974;2023-06-14T07:30:39;23.60;99.90
67379;DHT22;54262;44.642;-0.974;2023-06-14T07:33:05;23.20;99.90
67379;DHT22;54262;44.642;-0.974;2023-06-14T07:35:31;23.10;99.90
67379;DHT22;54262;44.642;-0.974;2023-06-14T07:37:57;23.00;99.90
67379;DHT22;54262;44.642;-0.974;2023-06-14T07:40:22;22.90;99.90
67379;DHT22;54262;44.642;-0.974;2023-06-14T07:42:48;22.70;99.90
67379;DHT22;54262;44.642;-0.974;2023-06-14T07:45:16;23.20;99.90
67379;DHT22;54262;44.642;-0.974;2023-06-14T07:47:41;23.70;99.90
67379;DHT22;54262;44.642;-0.974;2023-06-14T07:50:07;23.90;99.90
67379;DHT22;54262;44.642;-0.974;2023-06-14T07:52:33;22.60;99.90
67379;DHT22;54262;44.642;-0.974;2023-06-14T07:54:59;22.60;99.90
67379;DHT22;54262;44.642;-0.974;2023-06-14T07:57:25;22.20;99.90
67379;DHT22;54262;44.642;-0.974;2023-06-14T07:59:52;22.70;99.90
67379;DHT22;54262;44.642;-0.974;2023-06-14T08:02:18;22.90;99.90
67379;DHT22;54262;44.642;-0.974;2023-06-14T08:04:43;22.60;99.90
67379;DHT22;54262;44.642;-0.974;2023-06-14T08:07:09;22.70;99.90
67379;DHT22;54262;44.642;-0.974;2023-06-14T08:09:35;22.40;99.90
67379;DHT22;54262;44.642;-0.974;2023-06-14T08:12:04;22.40;99.90
67379;DHT22;54262;44.642;-0.974;2023-06-14T08:14:33;22.60;99.90
67379;DHT22;54262;44.642;-0.974;2023-06-14T08:16:59;22.90;99.90
67379;DHT22;54262;44.642;-0.974;2023-06-14T08:19:25;23.00;99.90
67379;DHT22;54262;44.642;-0.974;2023-06-14T08:21:52;22.90;99.90
67379;DHT22;54262;44.642;-0.974;2023-06-14T08:24:23;23.10;99.90
67379;DHT22;54262;44.642;-0.974;2023-06-14T08:26:55;22.70;99.90
67379;DHT22;54262;44.642;-0.974;2023-06-14T08:29:22;22.80;99.90
67379;DHT22;54262;44.642;-0.974;2023-06-14T08:31:48;22.80;99.90
67379;DHT22;54262;44.642;-0.974;2023-06-14T08:34:13;22.50;99.90
67379;DHT22;54262;44.642;-0.974;2023-06-14T08:36:42;22.60;99.90
67379;DHT22;54262;44.642;-0.974;2023-06-14T08:39:07;22.70;99.90
67379;DHT22;54262;44.642;-0.974;2023-06-14T08:41:34;22.60;99.90
67379;DHT22;54262;44.642;-0.974;2023-06-14T08:44:01;22.60;99.90
67379;DHT22;54262;44.642;-0.974;2023-06-14T08:46:26;22.70;99.90
67379;DHT22;54262;44.642;-0.974;2023-06-14T08:48:54;22.90;99.90
67379;DHT22;54262;44.642;-0.974;2023-06-14T08:51:22;22.90;99.90
67379;DHT22;54262;44.642;-0.974;2023-06-14T08:53:53;22.70;99.90
67379;DHT22;54262;44.642;-0.974;2023-06-14T08:56:26;22.80;99.90
67379;DHT22;54262;44.642;-0.974;2023-06-14T08:58:53;22.80;99.90
67379;DHT22;54262;44.642;-0.974;2023-06-14T09:01:20;23.10;99.90
67379;DHT22;54262;44.642;-0.974;2023-06-14T09:03:48;23.20;99.90
67379;DHT22;54262;44.642;-0.974;2023-06-14T09:06:14;23.00;99.90
67379;DHT22;54262;44.642;-0.974;2023-06-14T09:08:45;23.00;99.90
67379;DHT22;54262;44.642;-0.974;2023-06-14T09:11:12;22.80;99.90
67379;DHT22;54262;44.642;-0.974;2023-06-14T09:13:39;23.00;99.90
67379;DHT22;54262;44.642;-0.974;2023-06-14T09:16:05;22.90;99.90
67379;DHT22;54262;44.642;-0.974;2023-06-14T09:18:53;23.20;99.90
67379;DHT22;54262;44.642;-0.974;2023-06-14T09:21:19;23.10;99.90
67379;DHT22;54262;44.642;-0.974;2023-06-14T09:23:48;23.10;99.90
67379;DHT22;54262;44.642;-0.974;2023-06-14T09:26:18;23.10;99.90
67379;DHT22;54262;44.642;-0.974;2023-06-14T09:28:50;23.00;99.90
67379;DHT22;54262;44.642;-0.974;2023-06-14T09:31:20;23.10;99.90
67379;DHT22;54262;44.642;-0.974;2023-06-14T09:33:48;23.20;99.90
67379;DHT22;54262;44.642;-0.974;2023-06-14T09:36:21;23.20;99.90
67379;DHT22;54262;44.642;-0.974;2023-06-14T09:38:56;23.30;99.90
67379;DHT22;54262;44.642;-0.974;2023-06-14T09:41:38;23.40;99.90
67379;DHT22;54262;44.642;-0.974;2023-06-14T09:44:09;23.30;99.90
67379;DHT22;54262;44.642;-0.974;2023-06-14T09:46:36;23.40;99.90
67379;DHT22;54262;44.642;-0.974;2023-06-14T09:49:02;23.60;99.90
67379;DHT22;54262;44.642;-0.974;2023-06-14T09:51:29;23.50;99.90
67379;DHT22;54262;44.642;-0.974;2023-06-14T09:53:59;23.50;99.90
67379;DHT22;54262;44.642;-0.974;2023-06-14T09:56:29;23.40;99.90
67379;DHT22;54262;44.642;-0.974;2023-06-14T09:58:57;23.60;99.90
67379;DHT22;54262;44.642;-0.974;2023-06-14T10:01:30;23.50;99.90
67379;DHT22;54262;44.642;-0.974;2023-06-14T10:04:02;23.70;99.90
67379;DHT22;54262;44.642;-0.974;2023-06-14T10:06:29;23.60;99.90
67379;DHT22;54262;44.642;-0.974;2023-06-14T10:08:57;23.60;99.90
67379;DHT22;54262;44.642;-0.974;2023-06-14T10:11:28;23.80;99.90
67379;DHT22;54262;44.642;-0.974;2023-06-14T10:13:55;23.80;99.90
67379;DHT22;54262;44.642;-0.974;2023-06-14T10:19:24;24.10;99.90
67379;DHT22;54262;44.642;-0.974;2023-06-14T10:22:13;23.90;99.90
67379;DHT22;54262;44.642;-0.974;2023-06-14T10:24:46;23.80;99.90
67379;DHT22;54262;44.642;-0.974;2023-06-14T10:27:14;23.70;99.90
67379;DHT22;54262;44.642;-0.974;2023-06-14T10:32:25;24.00;99.90
67379;DHT22;54262;44.642;-0.974;2023-06-14T10:34:56;24.30;99.90
67379;DHT22;54262;44.642;-0.974;2023-06-14T10:37:22;24.40;99.90
67379;DHT22;54262;44.642;-0.974;2023-06-14T10:39:47;24.20;99.90
67379;DHT22;54262;44.642;-0.974;2023-06-14T10:42:15;24.00;99.90
67379;DHT22;54262;44.642;-0.974;2023-06-14T10:47:20;24.00;99.90
67379;DHT22;54262;44.642;-0.974;2023-06-14T10:49:51;24.10;99.90
67379;DHT22;54262;44.642;-0.974;2023-06-14T10:52:20;24.30;99.90
67379;DHT22;54262;44.642;-0.974;2023-06-14T10:57:22;24.20;99.90
67379;DHT22;54262;44.642;-0.974;2023-06-14T10:59:47;24.20;99.90
67379;DHT22;54262;44.642;-0.974;2023-06-14T11:05:08;24.20;99.90
67379;DHT22;54262;44.642;-0.974;2023-06-14T11:12:59;24.30;99.90
67379;DHT22;54262;44.642;-0.974;2023-06-14T11:15:31;24.40;99.90
67379;DHT22;54262;44.642;-0.974;2023-06-14T11:18:00;24.40;99.90
67379;DHT22;54262;44.642;-0.974;2023-06-14T11:20:27;24.20;99.90
67379;DHT22;54262;44.642;-0.974;2023-06-14T11:22:53;24.40;99.90
67379;DHT22;54262;44.642;-0.974;2023-06-14T11:25:21;24.50;99.90
67379;DHT22;54262;44.642;-0.974;2023-06-14T11:27:50;24.50;99.90
67379;DHT22;54262;44.642;-0.974;2023-06-14T11:30:16;24.70;99.90
67379;DHT22;54262;44.642;-0.974;2023-06-14T11:32:45;24.50;99.90
67379;DHT22;54262;44.642;-0.974;2023-06-14T11:35:11;24.50;99.90
67379;DHT22;54262;44.642;-0.974;2023-06-14T11:37:37;24.70;99.90
67379;DHT22;54262;44.642;-0.974;2023-06-14T11:40:04;24.70;99.90
67379;DHT22;54262;44.642;-0.974;2023-06-14T11:42:37;24.70;99.90
67379;DHT22;54262;44.642;-0.974;2023-06-14T11:45:06;24.70;99.90
67379;DHT22;54262;44.642;-0.974;2023-06-14T11:47:33;24.60;99.90
67379;DHT22;54262;44.642;-0.974;2023-06-14T11:50:00;24.80;99.90
67379;DHT22;54262;44.642;-0.974;2023-06-14T11:52:26;24.70;99.90
67379;DHT22;54262;44.642;-0.974;2023-06-14T11:54:52;24.80;99.90
67379;DHT22;54262;44.642;-0.974;2023-06-14T11:57:18;24.80;99.90
67379;DHT22;54262;44.642;-0.974;2023-06-14T11:59:44;24.80;99.90
67379;DHT22;54262;44.642;-0.974;2023-06-14T12:02:21;24.80;99.90
67379;DHT22;54262;44.642;-0.974;2023-06-14T12:04:47;24.90;99.90
67379;DHT22;54262;44.642;-0.974;2023-06-14T12:07:17;24.90;99.90
67379;DHT22;54262;44.642;-0.974;2023-06-14T12:12:24;25.10;99.90
67379;DHT22;54262;44.642;-0.974;2023-06-14T12:14:54;25.20;99.90
67379;DHT22;54262;44.642;-0.974;2023-06-14T12:17:22;25.00;99.90
67379;DHT22;54262;44.642;-0.974;2023-06-14T12:19:49;25.00;99.90
67379;DHT22;54262;44.642;-0.974;2023-06-14T12:22:15;25.20;99.90
67379;DHT22;54262;44.642;-0.974;2023-06-14T12:24:45;25.10;99.90
67379;DHT22;54262;44.642;-0.974;2023-06-14T12:27:13;25.30;99.90
67379;DHT22;54262;44.642;-0.974;2023-06-14T12:29:41;25.00;99.90
67379;DHT22;54262;44.642;-0.974;2023-06-14T12:32:09;25.20;99.90
67379;DHT22;54262;44.642;-0.974;2023-06-14T12:34:35;25.40;99.90
67379;DHT22;54262;44.642;-0.974;2023-06-14T12:37:01;25.20;99.90
67379;DHT22;54262;44.642;-0.974;2023-06-14T12:39:28;25.30;99.90
67379;DHT22;54262;44.642;-0.974;2023-06-14T12:41:55;25.40;99.90
67379;DHT22;54262;44.642;-0.974;2023-06-14T12:44:21;25.50;99.90
67379;DHT22;54262;44.642;-0.974;2023-06-14T12:46:46;25.20;99.90
67379;DHT22;54262;44.642;-0.974;2023-06-14T12:49:12;25.40;99.90
67379;DHT22;54262;44.642;-0.974;2023-06-14T12:51:41;25.30;99.90
67379;DHT22;54262;44.642;-0.974;2023-06-14T12:54:06;25.30;99.90
67379;DHT22;54262;44.642;-0.974;2023-06-14T12:56:32;25.50;99.90
67379;DHT22;54262;44.642;-0.974;2023-06-14T12:58:58;25.00;99.90
67379;DHT22;54262;44.642;-0.974;2023-06-14T13:01:24;25.30;99.90
67379;DHT22;54262;44.642;-0.974;2023-06-14T13:03:50;25.50;99.90
67379;DHT22;54262;44.642;-0.974;2023-06-14T13:06:17;25.70;99.90
67379;DHT22;54262;44.642;-0.974;2023-06-14T13:08:43;25.60;99.90
67379;DHT22;54262;44.642;-0.974;2023-06-14T13:11:09;25.70;99.90
67379;DHT22;54262;44.642;-0.974;2023-06-14T13:13:35;25.80;99.90
67379;DHT22;54262;44.642;-0.974;2023-06-14T13:16:00;25.80;99.90
67379;DHT22;54262;44.642;-0.974;2023-06-14T13:18:26;25.80;99.90
67379;DHT22;54262;44.642;-0.974;2023-06-14T13:20:53;25.80;99.90
67379;DHT22;54262;44.642;-0.974;2023-06-14T13:23:19;25.80;99.90
67379;DHT22;54262;44.642;-0.974;2023-06-14T13:25:44;25.80;99.90
67379;DHT22;54262;44.642;-0.974;2023-06-14T13:28:12;25.80;99.90
67379;DHT22;54262;44.642;-0.974;2023-06-14T13:30:40;25.80;99.90
67379;DHT22;54262;44.642;-0.974;2023-06-14T13:33:06;25.80;99.90
67379;DHT22;54262;44.642;-0.974;2023-06-14T13:35:31;25.90;99.90
67379;DHT22;54262;44.642;-0.974;2023-06-14T13:37:57;25.80;99.90
67379;DHT22;54262;44.642;-0.974;2023-06-14T13:40:23;25.90;99.90
67379;DHT22;54262;44.642;-0.974;2023-06-14T13:42:48;26.00;99.90
67379;DHT22;54262;44.642;-0.974;2023-06-14T13:45:15;25.90;99.90
67379;DHT22;54262;44.642;-0.974;2023-06-14T13:47:41;25.90;99.90
67379;DHT22;54262;44.642;-0.974;2023-06-14T13:50:07;25.50;99.90
67379;DHT22;54262;44.642;-0.974;2023-06-14T13:52:33;25.50;99.90
67379;DHT22;54262;44.642;-0.974;2023-06-14T13:55:00;25.30;99.90
67379;DHT22;54262;44.642;-0.974;2023-06-14T13:57:26;25.70;99.90
67379;DHT22;54262;44.642;-0.974;2023-06-14T13:59:51;25.90;99.90
67379;DHT22;54262;44.642;-0.974;2023-06-14T14:02:19;26.00;99.90
67379;DHT22;54262;44.642;-0.974;2023-06-14T14:04:45;26.00;99.90
67379;DHT22;54262;44.642;-0.974;2023-06-14T14:07:16;26.10;99.90
67379;DHT22;54262;44.642;-0.974;2023-06-14T14:09:42;26.10;99.90
67379;DHT22;54262;44.642;-0.974;2023-06-14T14:12:08;26.10;99.90
67379;DHT22;54262;44.642;-0.974;2023-06-14T14:14:34;26.20;99.90
67379;DHT22;54262;44.642;-0.974;2023-06-14T14:16:59;26.10;99.90
67379;DHT22;54262;44.642;-0.974;2023-06-14T14:19:25;26.10;99.90
67379;DHT22;54262;44.642;-0.974;2023-06-14T14:21:51;26.20;99.90
67379;DHT22;54262;44.642;-0.974;2023-06-14T14:24:18;25.90;99.90
67379;DHT22;54262;44.642;-0.974;2023-06-14T14:26:44;26.00;99.90
67379;DHT22;54262;44.642;-0.974;2023-06-14T14:29:15;26.00;99.90
67379;DHT22;54262;44.642;-0.974;2023-06-14T14:31:43;26.10;99.90
67379;DHT22;54262;44.642;-0.974;2023-06-14T14:34:09;25.50;99.90
67379;DHT22;54262;44.642;-0.974;2023-06-14T14:36:34;25.50;99.90
67379;DHT22;54262;44.642;-0.974;2023-06-14T14:39:03;25.80;99.90
67379;DHT22;54262;44.642;-0.974;2023-06-14T14:41:29;25.60;99.90
67379;DHT22;54262;44.642;-0.974;2023-06-14T14:43:55;26.10;99.90
67379;DHT22;54262;44.642;-0.974;2023-06-14T14:46:20;26.10;99.90
67379;DHT22;54262;44.642;-0.974;2023-06-14T14:48:46;26.00;99.90
67379;DHT22;54262;44.642;-0.974;2023-06-14T14:51:12;26.10;99.90
67379;DHT22;54262;44.642;-0.974;2023-06-14T14:53:37;25.80;99.90
67379;DHT22;54262;44.642;-0.974;2023-06-14T14:56:03;26.00;99.90
67379;DHT22;54262;44.642;-0.974;2023-06-14T14:58:29;26.00;99.90
67379;DHT22;54262;44.642;-0.974;2023-06-14T15:00:54;26.00;99.90
67379;DHT22;54262;44.642;-0.974;2023-06-14T15:03:20;25.80;99.90
67379;DHT22;54262;44.642;-0.974;2023-06-14T15:05:47;25.80;99.90
67379;DHT22;54262;44.642;-0.974;2023-06-14T15:08:12;25.90;99.90
67379;DHT22;54262;44.642;-0.974;2023-06-14T15:10:41;26.00;99.90
67379;DHT22;54262;44.642;-0.974;2023-06-14T15:13:10;25.70;99.90
67379;DHT22;54262;44.642;-0.974;2023-06-14T15:15:36;25.90;99.90
67379;DHT22;54262;44.642;-0.974;2023-06-14T15:18:02;25.70;99.90
67379;DHT22;54262;44.642;-0.974;2023-06-14T15:20:29;25.70;99.90
67379;DHT22;54262;44.642;-0.974;2023-06-14T15:22:55;25.50;99.90
67379;DHT22;54262;44.642;-0.974;2023-06-14T15:25:28;24.90;99.90
67379;DHT22;54262;44.642;-0.974;2023-06-14T15:27:55;24.90;99.90
67379;DHT22;54262;44.642;-0.974;2023-06-14T15:30:23;25.80;99.90
67379;DHT22;54262;44.642;-0.974;2023-06-14T15:32:51;25.50;99.90
67379;DHT22;54262;44.642;-0.974;2023-06-14T15:35:17;25.70;99.90
67379;DHT22;54262;44.642;-0.974;2023-06-14T15:37:47;25.90;99.90
67379;DHT22;54262;44.642;-0.974;2023-06-14T15:40:13;25.90;99.90
67379;DHT22;54262;44.642;-0.974;2023-06-14T15:42:42;26.00;99.90